Aviation Digital Data Service (ADDS)

Output produced by METARs form (1401 UTC 29 July 2016)
found at http://aviationweather.gov/adds/metars/
 
KCRG 291120Z 2912/3012 27007KT P6SM FEW045 FEW250 
     FM292000 17011KT P6SM SCT050 SCT250 
     FM300100 21008KT P6SM SCT050 SCT150 BKN250 
     FM300400 24004KT P6SM FEW150 FEW250